sensor_id;sensor_type;location;lat;lon;timestamp;temperature;humidity
20915;DHT22;10617;52.032;5.298;2023-04-06T00:02:52;5.40;60.00
20915;DHT22;10617;52.032;5.298;2023-04-06T00:06:54;5.30;60.50
20915;DHT22;10617;52.032;5.298;2023-04-06T00:10:56;5.30;59.70
20915;DHT22;10617;52.032;5.298;2023-04-06T00:14:57;5.30;61.80
20915;DHT22;10617;52.032;5.298;2023-04-06T00:18:59;5.20;61.80
20915;DHT22;10617;52.032;5.298;2023-04-06T00:23:01;5.20;61.00
20915;DHT22;10617;52.032;5.298;2023-04-06T00:27:02;5.30;61.50
20915;DHT22;10617;52.032;5.298;2023-04-06T00:31:04;5.20;62.10
20915;DHT22;10617;52.032;5.298;2023-04-06T00:35:06;5.20;60.90
20915;DHT22;10617;52.032;5.298;2023-04-06T00:39:08;5.20;61.50
20915;DHT22;10617;52.032;5.298;2023-04-06T00:43:13;5.20;63.50
20915;DHT22;10617;52.032;5.298;2023-04-06T00:47:14;5.20;61.00
20915;DHT22;10617;52.032;5.298;2023-04-06T00:51:16;5.30;60.40
20915;DHT22;10617;52.032;5.298;2023-04-06T00:55:18;5.30;60.40
20915;DHT22;10617;52.032;5.298;2023-04-06T00:59:19;5.30;60.20
20915;DHT22;10617;52.032;5.298;2023-04-06T01:03:22;5.30;61.50
20915;DHT22;10617;52.032;5.298;2023-04-06T01:07:23;5.30;61.80
20915;DHT22;10617;52.032;5.298;2023-04-06T01:11:26;5.30;61.00
20915;DHT22;10617;52.032;5.298;2023-04-06T01:15:28;5.30;61.40
20915;DHT22;10617;52.032;5.298;2023-04-06T01:19:30;5.40;60.40
20915;DHT22;10617;52.032;5.298;2023-04-06T01:23:31;5.30;61.30
20915;DHT22;10617;52.032;5.298;2023-04-06T01:27:33;5.30;61.80
20915;DHT22;10617;52.032;5.298;2023-04-06T01:31:35;5.30;61.20
20915;DHT22;10617;52.032;5.298;2023-04-06T01:35:36;5.40;61.90
20915;DHT22;10617;52.032;5.298;2023-04-06T01:39:38;5.40;61.40
20915;DHT22;10617;52.032;5.298;2023-04-06T01:43:40;5.40;63.50
20915;DHT22;10617;52.032;5.298;2023-04-06T01:47:41;5.40;65.00
20915;DHT22;10617;52.032;5.298;2023-04-06T01:51:43;5.50;63.80
20915;DHT22;10617;52.032;5.298;2023-04-06T01:55:44;5.50;63.30
20915;DHT22;10617;52.032;5.298;2023-04-06T01:59:46;5.60;63.70
20915;DHT22;10617;52.032;5.298;2023-04-06T02:03:48;5.60;63.80
20915;DHT22;10617;52.032;5.298;2023-04-06T02:07:50;5.60;62.60
20915;DHT22;10617;52.032;5.298;2023-04-06T02:11:52;5.60;62.30
20915;DHT22;10617;52.032;5.298;2023-04-06T02:15:54;5.70;62.60
20915;DHT22;10617;52.032;5.298;2023-04-06T02:19:56;5.70;63.20
20915;DHT22;10617;52.032;5.298;2023-04-06T02:23:57;5.70;63.30
20915;DHT22;10617;52.032;5.298;2023-04-06T02:27:59;5.70;62.50
20915;DHT22;10617;52.032;5.298;2023-04-06T02:32:01;5.70;63.50
20915;DHT22;10617;52.032;5.298;2023-04-06T02:36:03;5.70;63.40
20915;DHT22;10617;52.032;5.298;2023-04-06T02:40:04;5.70;63.00
20915;DHT22;10617;52.032;5.298;2023-04-06T02:44:07;5.70;62.80
20915;DHT22;10617;52.032;5.298;2023-04-06T02:48:10;5.70;62.90
20915;DHT22;10617;52.032;5.298;2023-04-06T02:52:11;5.70;64.40
20915;DHT22;10617;52.032;5.298;2023-04-06T02:56:13;5.60;64.20
20915;DHT22;10617;52.032;5.298;2023-04-06T03:00:15;5.60;63.70
20915;DHT22;10617;52.032;5.298;2023-04-06T03:14:23;5.70;64.00
20915;DHT22;10617;52.032;5.298;2023-04-06T03:28:33;5.60;64.70
20915;DHT22;10617;52.032;5.298;2023-04-06T03:32:35;5.60;64.10
20915;DHT22;10617;52.032;5.298;2023-04-06T03:36:37;5.60;63.90
20915;DHT22;10617;52.032;5.298;2023-04-06T03:40:38;5.50;66.10
20915;DHT22;10617;52.032;5.298;2023-04-06T03:44:40;5.50;64.90
20915;DHT22;10617;52.032;5.298;2023-04-06T03:48:41;5.40;66.10
20915;DHT22;10617;52.032;5.298;2023-04-06T03:52:43;5.40;65.80
20915;DHT22;10617;52.032;5.298;2023-04-06T03:56:45;5.40;66.60
20915;DHT22;10617;52.032;5.298;2023-04-06T04:00:46;5.30;65.30
20915;DHT22;10617;52.032;5.298;2023-04-06T04:04:48;5.30;64.90
20915;DHT22;10617;52.032;5.298;2023-04-06T04:08:50;5.30;65.70
20915;DHT22;10617;52.032;5.298;2023-04-06T04:12:51;5.20;68.60
20915;DHT22;10617;52.032;5.298;2023-04-06T04:16:53;5.20;65.00
20915;DHT22;10617;52.032;5.298;2023-04-06T04:20:54;5.20;67.40
20915;DHT22;10617;52.032;5.298;2023-04-06T04:24:56;5.20;67.20
20915;DHT22;10617;52.032;5.298;2023-04-06T04:28:58;5.20;67.30
20915;DHT22;10617;52.032;5.298;2023-04-06T04:32:59;5.20;65.90
20915;DHT22;10617;52.032;5.298;2023-04-06T04:37:01;5.20;67.10
20915;DHT22;10617;52.032;5.298;2023-04-06T04:41:03;5.30;70.00
20915;DHT22;10617;52.032;5.298;2023-04-06T04:45:04;5.30;69.30
20915;DHT22;10617;52.032;5.298;2023-04-06T04:49:06;5.30;68.90
20915;DHT22;10617;52.032;5.298;2023-04-06T04:53:08;5.30;68.10
20915;DHT22;10617;52.032;5.298;2023-04-06T04:57:10;5.30;68.50
20915;DHT22;10617;52.032;5.298;2023-04-06T05:01:11;5.30;69.70
20915;DHT22;10617;52.032;5.298;2023-04-06T05:05:13;5.40;70.20
20915;DHT22;10617;52.032;5.298;2023-04-06T05:09:15;5.40;69.50
20915;DHT22;10617;52.032;5.298;2023-04-06T05:13:16;5.40;69.20
20915;DHT22;10617;52.032;5.298;2023-04-06T05:17:18;5.40;67.90
20915;DHT22;10617;52.032;5.298;2023-04-06T05:21:19;5.50;66.40
20915;DHT22;10617;52.032;5.298;2023-04-06T05:25:21;5.50;69.60
20915;DHT22;10617;52.032;5.298;2023-04-06T05:29:23;5.50;69.00
20915;DHT22;10617;52.032;5.298;2023-04-06T05:33:25;5.50;71.30
20915;DHT22;10617;52.032;5.298;2023-04-06T05:37:27;5.50;73.00
20915;DHT22;10617;52.032;5.298;2023-04-06T05:41:29;5.50;71.40
20915;DHT22;10617;52.032;5.298;2023-04-06T05:45:31;5.60;72.10
20915;DHT22;10617;52.032;5.298;2023-04-06T05:49:32;5.70;71.30
20915;DHT22;10617;52.032;5.298;2023-04-06T05:53:34;5.70;71.30
20915;DHT22;10617;52.032;5.298;2023-04-06T05:57:36;5.80;67.40
20915;DHT22;10617;52.032;5.298;2023-04-06T06:01:37;5.80;70.90
20915;DHT22;10617;52.032;5.298;2023-04-06T06:05:39;5.90;70.00
20915;DHT22;10617;52.032;5.298;2023-04-06T06:09:41;5.90;71.20
20915;DHT22;10617;52.032;5.298;2023-04-06T06:13:42;6.00;72.30
20915;DHT22;10617;52.032;5.298;2023-04-06T06:17:44;6.00;71.20
20915;DHT22;10617;52.032;5.298;2023-04-06T06:21:46;6.10;71.60
20915;DHT22;10617;52.032;5.298;2023-04-06T06:25:47;6.20;68.80
20915;DHT22;10617;52.032;5.298;2023-04-06T06:29:49;6.30;69.10
20915;DHT22;10617;52.032;5.298;2023-04-06T06:33:51;6.40;69.40
20915;DHT22;10617;52.032;5.298;2023-04-06T06:37:52;6.50;73.20
20915;DHT22;10617;52.032;5.298;2023-04-06T06:41:54;6.60;72.60
20915;DHT22;10617;52.032;5.298;2023-04-06T06:45:56;6.80;70.50
20915;DHT22;10617;52.032;5.298;2023-04-06T06:49:58;6.90;71.50
20915;DHT22;10617;52.032;5.298;2023-04-06T06:53:59;7.00;68.70
20915;DHT22;10617;52.032;5.298;2023-04-06T06:58:01;7.10;72.60
20915;DHT22;10617;52.032;5.298;2023-04-06T07:02:03;7.10;68.50
20915;DHT22;10617;52.032;5.298;2023-04-06T07:06:05;7.20;71.40
20915;DHT22;10617;52.032;5.298;2023-04-06T07:10:07;7.20;70.20
20915;DHT22;10617;52.032;5.298;2023-04-06T07:14:09;7.20;69.50
20915;DHT22;10617;52.032;5.298;2023-04-06T07:18:11;7.20;68.70
20915;DHT22;10617;52.032;5.298;2023-04-06T07:22:13;7.30;69.20
20915;DHT22;10617;52.032;5.298;2023-04-06T07:26:14;7.30;67.70
20915;DHT22;10617;52.032;5.298;2023-04-06T07:30:16;7.40;68.50
20915;DHT22;10617;52.032;5.298;2023-04-06T07:34:17;7.40;68.10
20915;DHT22;10617;52.032;5.298;2023-04-06T07:38:19;7.40;71.30
20915;DHT22;10617;52.032;5.298;2023-04-06T07:42:21;7.50;69.90
20915;DHT22;10617;52.032;5.298;2023-04-06T07:46:22;7.50;69.60
20915;DHT22;10617;52.032;5.298;2023-04-06T07:50:24;7.60;70.90
20915;DHT22;10617;52.032;5.298;2023-04-06T07:54:26;7.60;71.50
20915;DHT22;10617;52.032;5.298;2023-04-06T07:58:27;7.70;71.70
20915;DHT22;10617;52.032;5.298;2023-04-06T08:02:29;7.80;70.50
20915;DHT22;10617;52.032;5.298;2023-04-06T08:06:31;7.90;72.90
20915;DHT22;10617;52.032;5.298;2023-04-06T08:25:43;8.40;74.80
20915;DHT22;10617;52.032;5.298;2023-04-06T08:29:45;8.50;76.50
20915;DHT22;10617;52.032;5.298;2023-04-06T08:33:47;8.70;76.20
20915;DHT22;10617;52.032;5.298;2023-04-06T08:37:48;8.80;76.80
20915;DHT22;10617;52.032;5.298;2023-04-06T08:41:51;8.90;77.10
20915;DHT22;10617;52.032;5.298;2023-04-06T08:45:53;8.90;76.60
20915;DHT22;10617;52.032;5.298;2023-04-06T08:49:55;9.00;76.10
20915;DHT22;10617;52.032;5.298;2023-04-06T08:53:58;9.10;78.50
20915;DHT22;10617;52.032;5.298;2023-04-06T08:58:00;9.20;79.50
20915;DHT22;10617;52.032;5.298;2023-04-06T09:02:03;9.30;80.40
20915;DHT22;10617;52.032;5.298;2023-04-06T09:06:06;9.30;78.30
20915;DHT22;10617;52.032;5.298;2023-04-06T09:10:08;9.30;77.50
20915;DHT22;10617;52.032;5.298;2023-04-06T09:14:10;9.30;77.10
20915;DHT22;10617;52.032;5.298;2023-04-06T09:18:11;9.30;79.40
20915;DHT22;10617;52.032;5.298;2023-04-06T09:22:13;9.30;82.10
20915;DHT22;10617;52.032;5.298;2023-04-06T09:26:15;9.20;82.40
20915;DHT22;10617;52.032;5.298;2023-04-06T09:30:17;9.20;81.80
20915;DHT22;10617;52.032;5.298;2023-04-06T09:34:20;9.20;83.10
20915;DHT22;10617;52.032;5.298;2023-04-06T09:38:22;9.20;84.60
20915;DHT22;10617;52.032;5.298;2023-04-06T09:42:24;9.20;84.00
20915;DHT22;10617;52.032;5.298;2023-04-06T09:46:27;9.30;85.20
20915;DHT22;10617;52.032;5.298;2023-04-06T09:50:29;9.30;86.00
20915;DHT22;10617;52.032;5.298;2023-04-06T09:54:30;9.40;85.20
20915;DHT22;10617;52.032;5.298;2023-04-06T09:58:33;9.50;87.40
20915;DHT22;10617;52.032;5.298;2023-04-06T10:02:50;9.60;86.50
20915;DHT22;10617;52.032;5.298;2023-04-06T10:06:52;9.60;88.50
20915;DHT22;10617;52.032;5.298;2023-04-06T10:10:54;9.70;90.30
20915;DHT22;10617;52.032;5.298;2023-04-06T10:14:56;9.80;86.80
20915;DHT22;10617;52.032;5.298;2023-04-06T10:19:00;9.70;92.80
20915;DHT22;10617;52.032;5.298;2023-04-06T10:23:08;9.60;93.50
20915;DHT22;10617;52.032;5.298;2023-04-06T10:27:10;9.50;93.00
20915;DHT22;10617;52.032;5.298;2023-04-06T10:31:12;9.50;92.30
20915;DHT22;10617;52.032;5.298;2023-04-06T10:35:14;9.50;95.00
20915;DHT22;10617;52.032;5.298;2023-04-06T10:39:23;9.30;96.00
20915;DHT22;10617;52.032;5.298;2023-04-06T10:43:25;9.20;97.00
20915;DHT22;10617;52.032;5.298;2023-04-06T10:47:27;9.10;95.60
20915;DHT22;10617;52.032;5.298;2023-04-06T10:51:29;9.00;98.30
20915;DHT22;10617;52.032;5.298;2023-04-06T10:55:30;8.90;97.80
20915;DHT22;10617;52.032;5.298;2023-04-06T10:59:32;8.80;99.90
20915;DHT22;10617;52.032;5.298;2023-04-06T11:03:42;8.70;99.90
20915;DHT22;10617;52.032;5.298;2023-04-06T11:07:44;8.60;99.90
20915;DHT22;10617;52.032;5.298;2023-04-06T11:11:46;8.60;99.90
20915;DHT22;10617;52.032;5.298;2023-04-06T11:15:47;8.50;99.90
20915;DHT22;10617;52.032;5.298;2023-04-06T11:19:50;8.50;99.90
20915;DHT22;10617;52.032;5.298;2023-04-06T11:23:52;8.50;99.90
20915;DHT22;10617;52.032;5.298;2023-04-06T11:27:53;8.60;99.90
20915;DHT22;10617;52.032;5.298;2023-04-06T11:31:59;8.70;99.90
20915;DHT22;10617;52.032;5.298;2023-04-06T11:36:01;8.90;99.90
20915;DHT22;10617;52.032;5.298;2023-04-06T11:40:02;8.90;99.90
20915;DHT22;10617;52.032;5.298;2023-04-06T11:44:05;9.00;99.90
20915;DHT22;10617;52.032;5.298;2023-04-06T11:48:17;9.20;99.90
20915;DHT22;10617;52.032;5.298;2023-04-06T11:52:25;9.20;99.90
20915;DHT22;10617;52.032;5.298;2023-04-06T11:56:28;9.20;99.90
20915;DHT22;10617;52.032;5.298;2023-04-06T12:00:29;9.30;99.90
20915;DHT22;10617;52.032;5.298;2023-04-06T12:04:35;9.30;99.90
20915;DHT22;10617;52.032;5.298;2023-04-06T12:08:37;9.20;99.90
20915;DHT22;10617;52.032;5.298;2023-04-06T12:12:39;9.20;99.90
20915;DHT22;10617;52.032;5.298;2023-04-06T12:16:41;9.20;99.90
20915;DHT22;10617;52.032;5.298;2023-04-06T12:20:43;9.20;99.90
20915;DHT22;10617;52.032;5.298;2023-04-06T12:24:45;9.30;99.90
20915;DHT22;10617;52.032;5.298;2023-04-06T12:28:46;9.30;99.90
20915;DHT22;10617;52.032;5.298;2023-04-06T12:32:49;9.30;99.90
20915;DHT22;10617;52.032;5.298;2023-04-06T12:36:51;9.40;99.90
20915;DHT22;10617;52.032;5.298;2023-04-06T12:40:53;9.30;99.90
20915;DHT22;10617;52.032;5.298;2023-04-06T12:44:54;9.30;99.90
20915;DHT22;10617;52.032;5.298;2023-04-06T12:48:56;9.20;99.90
20915;DHT22;10617;52.032;5.298;2023-04-06T12:52:59;9.10;99.90
20915;DHT22;10617;52.032;5.298;2023-04-06T12:57:00;9.00;99.90
20915;DHT22;10617;52.032;5.298;2023-04-06T13:01:05;8.90;99.90
20915;DHT22;10617;52.032;5.298;2023-04-06T13:05:07;8.90;99.90
20915;DHT22;10617;52.032;5.298;2023-04-06T13:09:09;8.90;99.90
20915;DHT22;10617;52.032;5.298;2023-04-06T13:13:10;8.80;99.90
20915;DHT22;10617;52.032;5.298;2023-04-06T13:17:12;8.80;99.90
20915;DHT22;10617;52.032;5.298;2023-04-06T13:21:14;8.90;99.90
20915;DHT22;10617;52.032;5.298;2023-04-06T13:25:17;8.90;99.90
20915;DHT22;10617;52.032;5.298;2023-04-06T13:29:19;8.90;99.90
20915;DHT22;10617;52.032;5.298;2023-04-06T13:33:21;8.80;99.90
20915;DHT22;10617;52.032;5.298;2023-04-06T13:37:22;8.80;99.90
20915;DHT22;10617;52.032;5.298;2023-04-06T13:41:24;8.70;99.90
20915;DHT22;10617;52.032;5.298;2023-04-06T13:45:27;8.60;99.90
20915;DHT22;10617;52.032;5.298;2023-04-06T13:49:29;8.60;99.90
20915;DHT22;10617;52.032;5.298;2023-04-06T13:53:31;8.60;99.90
20915;DHT22;10617;52.032;5.298;2023-04-06T13:57:33;8.60;99.90
20915;DHT22;10617;52.032;5.298;2023-04-06T14:01:34;8.60;99.90
20915;DHT22;10617;52.032;5.298;2023-04-06T14:05:36;8.60;99.90
20915;DHT22;10617;52.032;5.298;2023-04-06T14:09:38;8.60;99.90
20915;DHT22;10617;52.032;5.298;2023-04-06T14:13:39;8.60;99.90
20915;DHT22;10617;52.032;5.298;2023-04-06T14:17:41;8.50;99.90
20915;DHT22;10617;52.032;5.298;2023-04-06T14:21:43;8.50;99.90
20915;DHT22;10617;52.032;5.298;2023-04-06T14:25:45;8.50;99.90
20915;DHT22;10617;52.032;5.298;2023-04-06T14:29:47;8.50;99.90
20915;DHT22;10617;52.032;5.298;2023-04-06T14:33:49;8.60;99.90
20915;DHT22;10617;52.032;5.298;2023-04-06T14:37:51;8.60;99.90
20915;DHT22;10617;52.032;5.298;2023-04-06T14:41:52;8.50;99.90
20915;DHT22;10617;52.032;5.298;2023-04-06T14:45:54;8.50;99.90
20915;DHT22;10617;52.032;5.298;2023-04-06T14:49:56;8.40;99.90
20915;DHT22;10617;52.032;5.298;2023-04-06T14:53:59;8.40;99.90
20915;DHT22;10617;52.032;5.298;2023-04-06T14:58:01;8.50;99.90
20915;DHT22;10617;52.032;5.298;2023-04-06T15:02:03;8.50;99.90
20915;DHT22;10617;52.032;5.298;2023-04-06T15:06:05;8.50;99.90
20915;DHT22;10617;52.032;5.298;2023-04-06T15:10:08;8.60;99.90
20915;DHT22;10617;52.032;5.298;2023-04-06T15:14:12;8.60;99.90
20915;DHT22;10617;52.032;5.298;2023-04-06T15:18:13;8.60;99.90
20915;DHT22;10617;52.032;5.298;2023-04-06T15:22:15;8.60;99.90
20915;DHT22;10617;52.032;5.298;2023-04-06T15:26:16;8.50;99.90
20915;DHT22;10617;52.032;5.298;2023-04-06T15:30:18;8.50;99.90
20915;DHT22;10617;52.032;5.298;2023-04-06T15:34:20;8.50;99.90
20915;DHT22;10617;52.032;5.298;2023-04-06T15:38:21;8.40;99.90
20915;DHT22;10617;52.032;5.298;2023-04-06T15:42:24;8.40;99.90
20915;DHT22;10617;52.032;5.298;2023-04-06T15:46:25;8.40;99.90
20915;DHT22;10617;52.032;5.298;2023-04-06T15:50:28;8.40;99.90
20915;DHT22;10617;52.032;5.298;2023-04-06T15:54:30;8.40;99.90
20915;DHT22;10617;52.032;5.298;2023-04-06T15:58:32;8.40;99.90
20915;DHT22;10617;52.032;5.298;2023-04-06T16:02:33;8.40;99.90
20915;DHT22;10617;52.032;5.298;2023-04-06T16:11:39;8.40;99.90
20915;DHT22;10617;52.032;5.298;2023-04-06T16:15:41;8.40;99.90
20915;DHT22;10617;52.032;5.298;2023-04-06T16:19:42;8.40;99.90
20915;DHT22;10617;52.032;5.298;2023-04-06T16:23:45;8.40;99.90
20915;DHT22;10617;52.032;5.298;2023-04-06T16:27:47;8.40;99.90
20915;DHT22;10617;52.032;5.298;2023-04-06T16:31:49;8.40;99.90
20915;DHT22;10617;52.032;5.298;2023-04-06T16:35:50;8.40;99.90
20915;DHT22;10617;52.032;5.298;2023-04-06T16:39:52;8.40;99.90
20915;DHT22;10617;52.032;5.298;2023-04-06T16:43:54;8.40;99.90
20915;DHT22;10617;52.032;5.298;2023-04-06T16:47:57;8.40;99.90
20915;DHT22;10617;52.032;5.298;2023-04-06T16:51:59;8.40;99.90
20915;DHT22;10617;52.032;5.298;2023-04-06T16:56:06;8.40;99.90
20915;DHT22;10617;52.032;5.298;2023-04-06T17:00:10;8.40;99.90
20915;DHT22;10617;52.032;5.298;2023-04-06T17:04:12;8.40;99.90
20915;DHT22;10617;52.032;5.298;2023-04-06T17:08:14;8.40;99.90
20915;DHT22;10617;52.032;5.298;2023-04-06T17:12:15;8.40;99.90
20915;DHT22;10617;52.032;5.298;2023-04-06T17:16:17;8.40;99.90
20915;DHT22;10617;52.032;5.298;2023-04-06T17:20:19;8.40;99.90
20915;DHT22;10617;52.032;5.298;2023-04-06T17:24:21;8.40;99.90
20915;DHT22;10617;52.032;5.298;2023-04-06T17:28:23;8.40;99.90
20915;DHT22;10617;52.032;5.298;2023-04-06T17:32:25;8.40;99.90
20915;DHT22;10617;52.032;5.298;2023-04-06T17:36:28;8.40;99.90
20915;DHT22;10617;52.032;5.298;2023-04-06T17:40:30;8.40;99.90
20915;DHT22;10617;52.032;5.298;2023-04-06T17:44:32;8.50;99.90
20915;DHT22;10617;52.032;5.298;2023-04-06T17:48:34;8.50;99.90
20915;DHT22;10617;52.032;5.298;2023-04-06T17:52:36;8.50;99.90
20915;DHT22;10617;52.032;5.298;2023-04-06T17:56:37;8.50;99.90
20915;DHT22;10617;52.032;5.298;2023-04-06T18:00:39;8.60;99.90
20915;DHT22;10617;52.032;5.298;2023-04-06T18:04:41;8.60;99.90
20915;DHT22;10617;52.032;5.298;2023-04-06T18:08:44;8.60;99.90
20915;DHT22;10617;52.032;5.298;2023-04-06T18:12:46;8.60;99.90
20915;DHT22;10617;52.032;5.298;2023-04-06T18:16:48;8.60;99.90
20915;DHT22;10617;52.032;5.298;2023-04-06T18:20:49;8.60;99.90
20915;DHT22;10617;52.032;5.298;2023-04-06T18:24:51;8.60;99.90
20915;DHT22;10617;52.032;5.298;2023-04-06T18:28:52;8.60;99.90
20915;DHT22;10617;52.032;5.298;2023-04-06T18:32:54;8.60;99.90
20915;DHT22;10617;52.032;5.298;2023-04-06T18:36:56;8.60;99.90
20915;DHT22;10617;52.032;5.298;2023-04-06T18:40:57;8.60;99.90
20915;DHT22;10617;52.032;5.298;2023-04-06T18:44:59;8.70;99.90
20915;DHT22;10617;52.032;5.298;2023-04-06T18:49:02;8.70;99.90
20915;DHT22;10617;52.032;5.298;2023-04-06T18:53:04;8.70;99.90
20915;DHT22;10617;52.032;5.298;2023-04-06T18:57:05;8.70;99.90
20915;DHT22;10617;52.032;5.298;2023-04-06T19:01:07;8.70;99.90
20915;DHT22;10617;52.032;5.298;2023-04-06T19:05:09;8.70;99.90
20915;DHT22;10617;52.032;5.298;2023-04-06T19:09:11;8.70;99.90
20915;DHT22;10617;52.032;5.298;2023-04-06T19:13:13;8.60;99.90
20915;DHT22;10617;52.032;5.298;2023-04-06T19:17:14;8.70;99.90
20915;DHT22;10617;52.032;5.298;2023-04-06T19:21:16;8.70;99.90
20915;DHT22;10617;52.032;5.298;2023-04-06T19:25:18;8.70;99.90
20915;DHT22;10617;52.032;5.298;2023-04-06T19:29:20;8.70;99.90
20915;DHT22;10617;52.032;5.298;2023-04-06T19:33:22;8.80;99.90
20915;DHT22;10617;52.032;5.298;2023-04-06T19:37:24;8.80;99.90
20915;DHT22;10617;52.032;5.298;2023-04-06T19:41:25;8.80;99.90
20915;DHT22;10617;52.032;5.298;2023-04-06T19:45:27;8.90;99.90
20915;DHT22;10617;52.032;5.298;2023-04-06T19:49:30;8.90;99.90
20915;DHT22;10617;52.032;5.298;2023-04-06T19:53:32;8.90;99.90
20915;DHT22;10617;52.032;5.298;2023-04-06T19:57:33;9.00;99.90
20915;DHT22;10617;52.032;5.298;2023-04-06T20:01:35;9.00;99.90
20915;DHT22;10617;52.032;5.298;2023-04-06T20:05:36;9.00;99.90
20915;DHT22;10617;52.032;5.298;2023-04-06T20:09:38;9.10;99.90
20915;DHT22;10617;52.032;5.298;2023-04-06T20:13:40;9.10;99.90
20915;DHT22;10617;52.032;5.298;2023-04-06T20:17:41;9.10;99.90
20915;DHT22;10617;52.032;5.298;2023-04-06T20:21:43;9.10;99.90
20915;DHT22;10617;52.032;5.298;2023-04-06T20:25:45;9.10;99.90
20915;DHT22;10617;52.032;5.298;2023-04-06T20:29:47;9.10;99.90
20915;DHT22;10617;52.032;5.298;2023-04-06T20:33:48;9.10;99.90
20915;DHT22;10617;52.032;5.298;2023-04-06T20:37:50;9.10;99.90
20915;DHT22;10617;52.032;5.298;2023-04-06T20:41:52;9.10;99.90
20915;DHT22;10617;52.032;5.298;2023-04-06T20:45:57;9.10;99.90
20915;DHT22;10617;52.032;5.298;2023-04-06T20:49:59;9.10;99.90
20915;DHT22;10617;52.032;5.298;2023-04-06T20:54:01;9.10;99.90
20915;DHT22;10617;52.032;5.298;2023-04-06T20:58:03;9.10;99.90
20915;DHT22;10617;52.032;5.298;2023-04-06T21:02:04;9.10;99.90
20915;DHT22;10617;52.032;5.298;2023-04-06T21:06:07;9.10;99.90
20915;DHT22;10617;52.032;5.298;2023-04-06T21:10:08;9.10;99.90
20915;DHT22;10617;52.032;5.298;2023-04-06T21:14:13;9.10;99.90
20915;DHT22;10617;52.032;5.298;2023-04-06T21:18:15;9.10;99.90
20915;DHT22;10617;52.032;5.298;2023-04-06T21:22:16;9.10;99.90
20915;DHT22;10617;52.032;5.298;2023-04-06T21:26:18;9.20;99.90
20915;DHT22;10617;52.032;5.298;2023-04-06T21:30:20;9.20;99.90
20915;DHT22;10617;52.032;5.298;2023-04-06T21:34:21;9.20;99.90
20915;DHT22;10617;52.032;5.298;2023-04-06T21:38:23;9.20;99.90
20915;DHT22;10617;52.032;5.298;2023-04-06T21:42:24;9.20;99.90
20915;DHT22;10617;52.032;5.298;2023-04-06T21:46:26;9.20;99.90
20915;DHT22;10617;52.032;5.298;2023-04-06T21:50:28;9.20;99.90
20915;DHT22;10617;52.032;5.298;2023-04-06T21:54:31;9.30;99.90
20915;DHT22;10617;52.032;5.298;2023-04-06T21:58:34;9.30;99.90
20915;DHT22;10617;52.032;5.298;2023-04-06T22:02:35;9.30;99.90
20915;DHT22;10617;52.032;5.298;2023-04-06T22:06:37;9.30;99.90
20915;DHT22;10617;52.032;5.298;2023-04-06T22:10:39;9.30;99.90
20915;DHT22;10617;52.032;5.298;2023-04-06T22:14:41;9.40;99.90
20915;DHT22;10617;52.032;5.298;2023-04-06T22:18:42;9.40;99.90
20915;DHT22;10617;52.032;5.298;2023-04-06T22:22:44;9.40;99.90
20915;DHT22;10617;52.032;5.298;2023-04-06T22:26:46;9.30;99.90
20915;DHT22;10617;52.032;5.298;2023-04-06T22:30:47;9.40;99.90
20915;DHT22;10617;52.032;5.298;2023-04-06T22:34:49;9.40;99.90
20915;DHT22;10617;52.032;5.298;2023-04-06T22:38:50;9.40;99.90
20915;DHT22;10617;52.032;5.298;2023-04-06T22:42:52;9.40;99.90
20915;DHT22;10617;52.032;5.298;2023-04-06T22:46:54;9.40;99.90
20915;DHT22;10617;52.032;5.298;2023-04-06T22:50:56;9.40;99.90
20915;DHT22;10617;52.032;5.298;2023-04-06T22:54:57;9.40;99.90
20915;DHT22;10617;52.032;5.298;2023-04-06T22:58:59;9.30;99.90
20915;DHT22;10617;52.032;5.298;2023-04-06T23:03:00;9.30;99.90
20915;DHT22;10617;52.032;5.298;2023-04-06T23:17:10;9.30;99.90
20915;DHT22;10617;52.032;5.298;2023-04-06T23:21:11;9.30;99.90
20915;DHT22;10617;52.032;5.298;2023-04-06T23:25:13;9.30;99.90
20915;DHT22;10617;52.032;5.298;2023-04-06T23:29:14;9.30;99.90
20915;DHT22;10617;52.032;5.298;2023-04-06T23:33:16;9.30;99.90
20915;DHT22;10617;52.032;5.298;2023-04-06T23:37:18;9.30;99.90
20915;DHT22;10617;52.032;5.298;2023-04-06T23:41:20;9.30;99.90
20915;DHT22;10617;52.032;5.298;2023-04-06T23:45:22;9.20;99.90
20915;DHT22;10617;52.032;5.298;2023-04-06T23:49:24;9.20;99.90
20915;DHT22;10617;52.032;5.298;2023-04-06T23:53:26;9.20;99.90
20915;DHT22;10617;52.032;5.298;2023-04-06T23:57:28;9.20;99.90
